sensor_id;sensor_type;location;lat;lon;timestamp;P1;durP1;ratioP1;P2;durP2;ratioP2
74963;SDS011;63521;51.900;4.748;2023-06-05T00:00:38;1.65;;;1.42;;
74963;SDS011;63521;51.900;4.748;2023-06-05T00:03:04;1.55;;;1.23;;
74963;SDS011;63521;51.900;4.748;2023-06-05T00:05:29;1.48;;;1.15;;
74963;SDS011;63521;51.900;4.748;2023-06-05T00:07:56;1.70;;;1.38;;
74963;SDS011;63521;51.900;4.748;2023-06-05T00:10:21;1.45;;;1.00;;
74963;SDS011;63521;51.900;4.748;2023-06-05T00:12:47;2.45;;;1.52;;
74963;SDS011;63521;51.900;4.748;2023-06-05T00:15:12;2.65;;;1.38;;
74963;SDS011;63521;51.900;4.748;2023-06-05T00:17:38;2.33;;;1.40;;
74963;SDS011;63521;51.900;4.748;2023-06-05T00:20:03;2.53;;;1.33;;
74963;SDS011;63521;51.900;4.748;2023-06-05T00:22:30;2.28;;;1.42;;
74963;SDS011;63521;51.900;4.748;2023-06-05T00:24:56;1.75;;;1.30;;
74963;SDS011;63521;51.900;4.748;2023-06-05T00:27:22;2.05;;;1.60;;
74963;SDS011;63521;51.900;4.748;2023-06-05T00:29:48;1.75;;;1.38;;
74963;SDS011;63521;51.900;4.748;2023-06-05T00:32:14;1.45;;;1.20;;
74963;SDS011;63521;51.900;4.748;2023-06-05T00:34:39;2.03;;;1.50;;
74963;SDS011;63521;51.900;4.748;2023-06-05T00:37:04;1.45;;;1.33;;
74963;SDS011;63521;51.900;4.748;2023-06-05T00:39:31;1.77;;;1.20;;
74963;SDS011;63521;51.900;4.748;2023-06-05T00:41:56;2.55;;;1.58;;
74963;SDS011;63521;51.900;4.748;2023-06-05T00:44:22;2.42;;;1.20;;
74963;SDS011;63521;51.900;4.748;2023-06-05T00:46:48;2.40;;;1.25;;
74963;SDS011;63521;51.900;4.748;2023-06-05T00:49:14;1.83;;;1.40;;
74963;SDS011;63521;51.900;4.748;2023-06-05T00:51:40;2.15;;;1.35;;
74963;SDS011;63521;51.900;4.748;2023-06-05T00:54:07;1.45;;;1.20;;
74963;SDS011;63521;51.900;4.748;2023-06-05T00:56:32;1.60;;;1.42;;
74963;SDS011;63521;51.900;4.748;2023-06-05T00:59:00;1.35;;;1.25;;
74963;SDS011;63521;51.900;4.748;2023-06-05T01:01:26;1.55;;;1.20;;
74963;SDS011;63521;51.900;4.748;2023-06-05T01:03:53;1.88;;;1.30;;
74963;SDS011;63521;51.900;4.748;2023-06-05T01:06:22;1.70;;;1.10;;
74963;SDS011;63521;51.900;4.748;2023-06-05T01:08:49;2.30;;;1.25;;
74963;SDS011;63521;51.900;4.748;2023-06-05T01:16:34;2.50;;;1.45;;
74963;SDS011;63521;51.900;4.748;2023-06-05T01:18:59;3.08;;;1.38;;
74963;SDS011;63521;51.900;4.748;2023-06-05T01:21:31;2.95;;;1.50;;
74963;SDS011;63521;51.900;4.748;2023-06-05T01:23:57;1.83;;;1.33;;
74963;SDS011;63521;51.900;4.748;2023-06-05T01:26:27;1.80;;;1.40;;
74963;SDS011;63521;51.900;4.748;2023-06-05T01:28:55;2.22;;;1.52;;
74963;SDS011;63521;51.900;4.748;2023-06-05T01:31:22;3.00;;;1.52;;
74963;SDS011;63521;51.900;4.748;2023-06-05T01:33:49;1.63;;;1.30;;
74963;SDS011;63521;51.900;4.748;2023-06-05T01:36:17;2.75;;;1.65;;
74963;SDS011;63521;51.900;4.748;2023-06-05T01:38:43;2.00;;;1.58;;
74963;SDS011;63521;51.900;4.748;2023-06-05T01:41:09;1.55;;;1.30;;
74963;SDS011;63521;51.900;4.748;2023-06-05T01:43:36;1.73;;;1.25;;
74963;SDS011;63521;51.900;4.748;2023-06-05T01:46:01;2.33;;;1.42;;
74963;SDS011;63521;51.900;4.748;2023-06-05T01:48:28;1.98;;;1.42;;
74963;SDS011;63521;51.900;4.748;2023-06-05T01:50:55;2.70;;;1.40;;
74963;SDS011;63521;51.900;4.748;2023-06-05T01:53:24;1.90;;;1.50;;
74963;SDS011;63521;51.900;4.748;2023-06-05T01:55:50;2.38;;;1.45;;
74963;SDS011;63521;51.900;4.748;2023-06-05T02:00:47;1.88;;;1.40;;
74963;SDS011;63521;51.900;4.748;2023-06-05T02:03:13;2.22;;;1.80;;
74963;SDS011;63521;51.900;4.748;2023-06-05T02:05:41;2.20;;;1.42;;
74963;SDS011;63521;51.900;4.748;2023-06-05T02:08:06;2.35;;;1.23;;
74963;SDS011;63521;51.900;4.748;2023-06-05T02:10:34;2.17;;;1.50;;
74963;SDS011;63521;51.900;4.748;2023-06-05T02:13:00;3.30;;;1.58;;
74963;SDS011;63521;51.900;4.748;2023-06-05T02:15:25;1.98;;;1.40;;
74963;SDS011;63521;51.900;4.748;2023-06-05T02:17:51;2.35;;;1.45;;
74963;SDS011;63521;51.900;4.748;2023-06-05T02:20:19;1.65;;;1.30;;
74963;SDS011;63521;51.900;4.748;2023-06-05T02:22:49;1.35;;;1.23;;
74963;SDS011;63521;51.900;4.748;2023-06-05T02:25:17;2.47;;;1.65;;
74963;SDS011;63521;51.900;4.748;2023-06-05T02:27:46;2.83;;;1.60;;
74963;SDS011;63521;51.900;4.748;2023-06-05T02:30:11;1.85;;;1.58;;
74963;SDS011;63521;51.900;4.748;2023-06-05T02:32:37;1.50;;;1.38;;
74963;SDS011;63521;51.900;4.748;2023-06-05T02:35:09;2.45;;;1.67;;
74963;SDS011;63521;51.900;4.748;2023-06-05T02:37:35;2.10;;;1.40;;
74963;SDS011;63521;51.900;4.748;2023-06-05T02:40:08;2.38;;;1.40;;
74963;SDS011;63521;51.900;4.748;2023-06-05T02:42:34;2.10;;;1.48;;
74963;SDS011;63521;51.900;4.748;2023-06-05T02:45:00;3.10;;;1.63;;
74963;SDS011;63521;51.900;4.748;2023-06-05T02:47:26;2.50;;;1.45;;
74963;SDS011;63521;51.900;4.748;2023-06-05T02:49:51;1.73;;;1.35;;
74963;SDS011;63521;51.900;4.748;2023-06-05T02:52:17;2.97;;;1.70;;
74963;SDS011;63521;51.900;4.748;2023-06-05T02:54:42;2.15;;;1.70;;
74963;SDS011;63521;51.900;4.748;2023-06-05T02:57:07;2.67;;;1.50;;
74963;SDS011;63521;51.900;4.748;2023-06-05T02:59:33;2.22;;;1.40;;
74963;SDS011;63521;51.900;4.748;2023-06-05T03:02:04;3.05;;;1.90;;
74963;SDS011;63521;51.900;4.748;2023-06-05T03:04:30;2.03;;;1.42;;
74963;SDS011;63521;51.900;4.748;2023-06-05T03:06:57;3.08;;;1.70;;
74963;SDS011;63521;51.900;4.748;2023-06-05T03:09:24;2.70;;;1.52;;
74963;SDS011;63521;51.900;4.748;2023-06-05T03:11:49;2.33;;;1.73;;
74963;SDS011;63521;51.900;4.748;2023-06-05T03:14:15;3.83;;;1.73;;
74963;SDS011;63521;51.900;4.748;2023-06-05T03:16:40;2.90;;;1.75;;
74963;SDS011;63521;51.900;4.748;2023-06-05T03:19:09;2.70;;;1.92;;
74963;SDS011;63521;51.900;4.748;2023-06-05T03:21:35;1.92;;;1.35;;
74963;SDS011;63521;51.900;4.748;2023-06-05T03:24:03;1.83;;;1.40;;
74963;SDS011;63521;51.900;4.748;2023-06-05T03:26:30;4.00;;;1.67;;
74963;SDS011;63521;51.900;4.748;2023-06-05T03:28:57;3.10;;;1.75;;
74963;SDS011;63521;51.900;4.748;2023-06-05T03:31:22;2.60;;;1.60;;
74963;SDS011;63521;51.900;4.748;2023-06-05T03:33:48;1.88;;;1.33;;
74963;SDS011;63521;51.900;4.748;2023-06-05T03:36:13;2.70;;;1.60;;
74963;SDS011;63521;51.900;4.748;2023-06-05T03:38:42;3.08;;;1.73;;
74963;SDS011;63521;51.900;4.748;2023-06-05T03:41:08;1.98;;;1.55;;
74963;SDS011;63521;51.900;4.748;2023-06-05T03:43:34;1.95;;;1.50;;
74963;SDS011;63521;51.900;4.748;2023-06-05T03:45:59;2.22;;;1.60;;
74963;SDS011;63521;51.900;4.748;2023-06-05T03:48:24;3.05;;;1.45;;
74963;SDS011;63521;51.900;4.748;2023-06-05T03:50:50;1.77;;;1.58;;
74963;SDS011;63521;51.900;4.748;2023-06-05T03:53:17;2.15;;;1.63;;
74963;SDS011;63521;51.900;4.748;2023-06-05T03:55:43;2.72;;;1.70;;
74963;SDS011;63521;51.900;4.748;2023-06-05T03:58:11;3.03;;;1.70;;
74963;SDS011;63521;51.900;4.748;2023-06-05T04:00:40;1.88;;;1.40;;
74963;SDS011;63521;51.900;4.748;2023-06-05T04:03:07;2.53;;;1.92;;
74963;SDS011;63521;51.900;4.748;2023-06-05T04:05:37;3.67;;;1.70;;
74963;SDS011;63521;51.900;4.748;2023-06-05T04:08:04;3.28;;;1.55;;
74963;SDS011;63521;51.900;4.748;2023-06-05T04:10:30;3.83;;;1.70;;
74963;SDS011;63521;51.900;4.748;2023-06-05T04:12:55;2.20;;;1.70;;
74963;SDS011;63521;51.900;4.748;2023-06-05T04:15:24;2.72;;;1.75;;
74963;SDS011;63521;51.900;4.748;2023-06-05T04:17:50;2.08;;;1.58;;
74963;SDS011;63521;51.900;4.748;2023-06-05T04:20:16;2.13;;;1.52;;
74963;SDS011;63521;51.900;4.748;2023-06-05T04:22:42;2.28;;;1.70;;
74963;SDS011;63521;51.900;4.748;2023-06-05T04:25:08;2.30;;;1.90;;
74963;SDS011;63521;51.900;4.748;2023-06-05T04:27:35;2.97;;;1.80;;
74963;SDS011;63521;51.900;4.748;2023-06-05T04:30:03;2.15;;;1.50;;
74963;SDS011;63521;51.900;4.748;2023-06-05T04:32:30;2.10;;;1.50;;
74963;SDS011;63521;51.900;4.748;2023-06-05T04:34:59;2.58;;;1.58;;
74963;SDS011;63521;51.900;4.748;2023-06-05T04:37:24;1.83;;;1.40;;
74963;SDS011;63521;51.900;4.748;2023-06-05T04:39:50;2.95;;;1.88;;
74963;SDS011;63521;51.900;4.748;2023-06-05T04:42:16;2.22;;;1.48;;
74963;SDS011;63521;51.900;4.748;2023-06-05T04:44:42;2.88;;;1.70;;
74963;SDS011;63521;51.900;4.748;2023-06-05T04:47:08;3.25;;;1.45;;
74963;SDS011;63521;51.900;4.748;2023-06-05T04:49:33;2.05;;;1.30;;
74963;SDS011;63521;51.900;4.748;2023-06-05T04:51:58;2.33;;;1.50;;
74963;SDS011;63521;51.900;4.748;2023-06-05T04:54:24;2.10;;;1.55;;
74963;SDS011;63521;51.900;4.748;2023-06-05T04:56:50;3.53;;;1.45;;
74963;SDS011;63521;51.900;4.748;2023-06-05T04:59:17;2.95;;;1.88;;
74963;SDS011;63521;51.900;4.748;2023-06-05T05:01:43;3.58;;;1.70;;
74963;SDS011;63521;51.900;4.748;2023-06-05T05:04:08;3.15;;;2.03;;
74963;SDS011;63521;51.900;4.748;2023-06-05T05:06:34;3.50;;;1.92;;
74963;SDS011;63521;51.900;4.748;2023-06-05T05:08:59;2.65;;;1.75;;
74963;SDS011;63521;51.900;4.748;2023-06-05T05:11:25;2.40;;;1.60;;
74963;SDS011;63521;51.900;4.748;2023-06-05T05:13:51;2.50;;;1.60;;
74963;SDS011;63521;51.900;4.748;2023-06-05T05:16:16;4.00;;;1.50;;
74963;SDS011;63521;51.900;4.748;2023-06-05T05:18:43;3.42;;;1.85;;
74963;SDS011;63521;51.900;4.748;2023-06-05T05:21:09;2.80;;;1.50;;
74963;SDS011;63521;51.900;4.748;2023-06-05T05:23:34;2.10;;;1.48;;
74963;SDS011;63521;51.900;4.748;2023-06-05T05:26:00;2.45;;;1.73;;
74963;SDS011;63521;51.900;4.748;2023-06-05T05:28:26;3.05;;;1.80;;
74963;SDS011;63521;51.900;4.748;2023-06-05T05:30:52;3.55;;;1.60;;
74963;SDS011;63521;51.900;4.748;2023-06-05T05:33:18;4.13;;;1.90;;
74963;SDS011;63521;51.900;4.748;2023-06-05T05:35:44;3.30;;;1.60;;
74963;SDS011;63521;51.900;4.748;2023-06-05T05:38:09;3.85;;;1.85;;
74963;SDS011;63521;51.900;4.748;2023-06-05T05:40:36;2.70;;;1.77;;
74963;SDS011;63521;51.900;4.748;2023-06-05T05:43:02;3.22;;;2.00;;
74963;SDS011;63521;51.900;4.748;2023-06-05T05:45:29;3.53;;;1.90;;
74963;SDS011;63521;51.900;4.748;2023-06-05T05:47:58;2.72;;;1.80;;
74963;SDS011;63521;51.900;4.748;2023-06-05T05:50:41;3.03;;;1.80;;
74963;SDS011;63521;51.900;4.748;2023-06-05T05:53:10;3.65;;;1.83;;
74963;SDS011;63521;51.900;4.748;2023-06-05T05:55:36;3.58;;;2.10;;
74963;SDS011;63521;51.900;4.748;2023-06-05T05:58:01;2.53;;;1.80;;
74963;SDS011;63521;51.900;4.748;2023-06-05T06:00:27;3.55;;;1.88;;
74963;SDS011;63521;51.900;4.748;2023-06-05T06:02:53;3.08;;;1.80;;
74963;SDS011;63521;51.900;4.748;2023-06-05T06:05:18;2.63;;;1.75;;
74963;SDS011;63521;51.900;4.748;2023-06-05T06:07:45;2.88;;;2.00;;
74963;SDS011;63521;51.900;4.748;2023-06-05T06:10:10;3.15;;;1.88;;
74963;SDS011;63521;51.900;4.748;2023-06-05T06:12:37;4.68;;;1.85;;
74963;SDS011;63521;51.900;4.748;2023-06-05T06:15:04;2.60;;;1.83;;
74963;SDS011;63521;51.900;4.748;2023-06-05T06:17:30;3.47;;;1.70;;
74963;SDS011;63521;51.900;4.748;2023-06-05T06:19:56;4.57;;;2.22;;
74963;SDS011;63521;51.900;4.748;2023-06-05T06:22:22;2.78;;;1.70;;
74963;SDS011;63521;51.900;4.748;2023-06-05T06:24:47;4.45;;;2.10;;
74963;SDS011;63521;51.900;4.748;2023-06-05T06:27:15;3.50;;;1.90;;
74963;SDS011;63521;51.900;4.748;2023-06-05T06:29:50;4.07;;;2.05;;
74963;SDS011;63521;51.900;4.748;2023-06-05T06:32:19;3.97;;;2.10;;
74963;SDS011;63521;51.900;4.748;2023-06-05T06:34:45;3.50;;;2.05;;
74963;SDS011;63521;51.900;4.748;2023-06-05T06:37:13;3.28;;;2.00;;
74963;SDS011;63521;51.900;4.748;2023-06-05T06:39:40;2.97;;;2.00;;
74963;SDS011;63521;51.900;4.748;2023-06-05T06:45:06;4.95;;;2.67;;
74963;SDS011;63521;51.900;4.748;2023-06-05T06:47:31;3.28;;;1.98;;
74963;SDS011;63521;51.900;4.748;2023-06-05T06:49:57;3.58;;;2.30;;
74963;SDS011;63521;51.900;4.748;2023-06-05T06:52:22;4.07;;;2.13;;
74963;SDS011;63521;51.900;4.748;2023-06-05T06:54:48;4.50;;;2.40;;
74963;SDS011;63521;51.900;4.748;2023-06-05T06:57:14;4.03;;;2.60;;
74963;SDS011;63521;51.900;4.748;2023-06-05T06:59:40;3.17;;;1.95;;
74963;SDS011;63521;51.900;4.748;2023-06-05T07:02:15;4.57;;;2.33;;
74963;SDS011;63521;51.900;4.748;2023-06-05T07:04:42;3.65;;;2.33;;
74963;SDS011;63521;51.900;4.748;2023-06-05T07:07:12;3.03;;;2.13;;
74963;SDS011;63521;51.900;4.748;2023-06-05T07:09:39;3.58;;;2.28;;
74963;SDS011;63521;51.900;4.748;2023-06-05T07:12:05;3.85;;;2.50;;
74963;SDS011;63521;51.900;4.748;2023-06-05T07:14:32;4.85;;;2.20;;
74963;SDS011;63521;51.900;4.748;2023-06-05T07:16:58;3.70;;;2.40;;
74963;SDS011;63521;51.900;4.748;2023-06-05T07:19:25;3.60;;;2.17;;
74963;SDS011;63521;51.900;4.748;2023-06-05T07:21:51;4.07;;;2.38;;
74963;SDS011;63521;51.900;4.748;2023-06-05T07:24:17;3.63;;;2.22;;
74963;SDS011;63521;51.900;4.748;2023-06-05T07:26:43;4.03;;;2.53;;
74963;SDS011;63521;51.900;4.748;2023-06-05T07:29:10;3.72;;;2.55;;
74963;SDS011;63521;51.900;4.748;2023-06-05T07:31:35;5.63;;;2.33;;
74963;SDS011;63521;51.900;4.748;2023-06-05T07:34:01;3.85;;;2.25;;
74963;SDS011;63521;51.900;4.748;2023-06-05T07:36:27;3.88;;;2.45;;
74963;SDS011;63521;51.900;4.748;2023-06-05T07:38:53;3.97;;;2.33;;
74963;SDS011;63521;51.900;4.748;2023-06-05T07:41:19;3.38;;;2.25;;
74963;SDS011;63521;51.900;4.748;2023-06-05T07:43:45;3.72;;;2.40;;
74963;SDS011;63521;51.900;4.748;2023-06-05T07:46:11;5.22;;;2.80;;
74963;SDS011;63521;51.900;4.748;2023-06-05T07:48:36;3.95;;;2.40;;
74963;SDS011;63521;51.900;4.748;2023-06-05T07:51:01;3.17;;;2.33;;
74963;SDS011;63521;51.900;4.748;2023-06-05T07:53:27;4.03;;;2.40;;
74963;SDS011;63521;51.900;4.748;2023-06-05T07:55:52;3.47;;;2.38;;
74963;SDS011;63521;51.900;4.748;2023-06-05T07:58:18;2.92;;;2.20;;
74963;SDS011;63521;51.900;4.748;2023-06-05T08:00:44;3.95;;;2.30;;
74963;SDS011;63521;51.900;4.748;2023-06-05T08:03:12;3.38;;;2.40;;
74963;SDS011;63521;51.900;4.748;2023-06-05T08:05:47;3.30;;;2.42;;
74963;SDS011;63521;51.900;4.748;2023-06-05T08:08:13;3.30;;;2.00;;
74963;SDS011;63521;51.900;4.748;2023-06-05T08:10:38;2.90;;;2.30;;
74963;SDS011;63521;51.900;4.748;2023-06-05T08:13:04;2.53;;;2.10;;
74963;SDS011;63521;51.900;4.748;2023-06-05T08:15:30;4.75;;;2.03;;
74963;SDS011;63521;51.900;4.748;2023-06-05T08:17:55;4.55;;;2.22;;
74963;SDS011;63521;51.900;4.748;2023-06-05T08:20:20;3.67;;;2.35;;
74963;SDS011;63521;51.900;4.748;2023-06-05T08:22:46;3.35;;;2.17;;
74963;SDS011;63521;51.900;4.748;2023-06-05T08:25:12;3.13;;;2.17;;
74963;SDS011;63521;51.900;4.748;2023-06-05T08:27:37;2.15;;;1.65;;
74963;SDS011;63521;51.900;4.748;2023-06-05T08:30:03;2.92;;;2.10;;
74963;SDS011;63521;51.900;4.748;2023-06-05T08:32:28;2.92;;;1.95;;
74963;SDS011;63521;51.900;4.748;2023-06-05T08:34:54;3.03;;;2.20;;
74963;SDS011;63521;51.900;4.748;2023-06-05T08:37:19;2.67;;;2.22;;
74963;SDS011;63521;51.900;4.748;2023-06-05T08:39:45;3.42;;;2.00;;
74963;SDS011;63521;51.900;4.748;2023-06-05T08:42:11;2.20;;;1.70;;
74963;SDS011;63521;51.900;4.748;2023-06-05T08:44:43;2.95;;;2.00;;
74963;SDS011;63521;51.900;4.748;2023-06-05T08:47:14;2.72;;;1.80;;
74963;SDS011;63521;51.900;4.748;2023-06-05T08:49:41;2.85;;;1.95;;
74963;SDS011;63521;51.900;4.748;2023-06-05T08:52:07;2.08;;;1.88;;
74963;SDS011;63521;51.900;4.748;2023-06-05T08:54:35;2.70;;;1.98;;
74963;SDS011;63521;51.900;4.748;2023-06-05T08:57:03;2.00;;;1.80;;
74963;SDS011;63521;51.900;4.748;2023-06-05T08:59:29;2.28;;;1.95;;
74963;SDS011;63521;51.900;4.748;2023-06-05T09:01:55;2.10;;;1.90;;
74963;SDS011;63521;51.900;4.748;2023-06-05T09:04:21;2.10;;;1.85;;
74963;SDS011;63521;51.900;4.748;2023-06-05T09:06:46;2.10;;;1.80;;
74963;SDS011;63521;51.900;4.748;2023-06-05T09:09:13;2.85;;;2.15;;
74963;SDS011;63521;51.900;4.748;2023-06-05T09:11:39;2.50;;;1.88;;
74963;SDS011;63521;51.900;4.748;2023-06-05T09:14:05;2.10;;;1.80;;
74963;SDS011;63521;51.900;4.748;2023-06-05T09:16:34;2.00;;;1.75;;
74963;SDS011;63521;51.900;4.748;2023-06-05T09:19:01;1.90;;;1.70;;
74963;SDS011;63521;51.900;4.748;2023-06-05T09:21:27;2.42;;;1.95;;
74963;SDS011;63521;51.900;4.748;2023-06-05T09:24:13;2.40;;;1.90;;
74963;SDS011;63521;51.900;4.748;2023-06-05T09:26:49;2.45;;;1.77;;
74963;SDS011;63521;51.900;4.748;2023-06-05T09:29:21;2.70;;;1.52;;
74963;SDS011;63521;51.900;4.748;2023-06-05T09:31:47;2.58;;;1.80;;
74963;SDS011;63521;51.900;4.748;2023-06-05T09:34:23;2.05;;;1.65;;
74963;SDS011;63521;51.900;4.748;2023-06-05T09:36:49;1.73;;;1.52;;
74963;SDS011;63521;51.900;4.748;2023-06-05T09:39:15;2.40;;;1.80;;
74963;SDS011;63521;51.900;4.748;2023-06-05T09:41:42;2.33;;;1.63;;
74963;SDS011;63521;51.900;4.748;2023-06-05T09:44:09;2.85;;;1.80;;
74963;SDS011;63521;51.900;4.748;2023-06-05T09:46:35;2.42;;;1.50;;
74963;SDS011;63521;51.900;4.748;2023-06-05T09:49:18;1.92;;;1.73;;
74963;SDS011;63521;51.900;4.748;2023-06-05T09:51:44;1.90;;;1.50;;
74963;SDS011;63521;51.900;4.748;2023-06-05T09:54:12;1.67;;;1.50;;
74963;SDS011;63521;51.900;4.748;2023-06-05T09:56:39;1.90;;;1.45;;
74963;SDS011;63521;51.900;4.748;2023-06-05T09:59:05;2.00;;;1.50;;
74963;SDS011;63521;51.900;4.748;2023-06-05T10:01:31;2.03;;;1.75;;
74963;SDS011;63521;51.900;4.748;2023-06-05T10:04:06;1.80;;;1.60;;
74963;SDS011;63521;51.900;4.748;2023-06-05T10:06:34;1.67;;;1.55;;
74963;SDS011;63521;51.900;4.748;2023-06-05T10:09:02;2.92;;;1.80;;
74963;SDS011;63521;51.900;4.748;2023-06-05T10:11:28;2.63;;;1.60;;
74963;SDS011;63521;51.900;4.748;2023-06-05T10:13:54;1.75;;;1.60;;
74963;SDS011;63521;51.900;4.748;2023-06-05T10:16:20;1.67;;;1.58;;
74963;SDS011;63521;51.900;4.748;2023-06-05T10:18:46;2.33;;;1.60;;
74963;SDS011;63521;51.900;4.748;2023-06-05T10:21:14;2.17;;;1.60;;
74963;SDS011;63521;51.900;4.748;2023-06-05T10:23:42;1.70;;;1.60;;
74963;SDS011;63521;51.900;4.748;2023-06-05T10:26:11;2.33;;;1.67;;
74963;SDS011;63521;51.900;4.748;2023-06-05T10:28:49;2.40;;;1.88;;
74963;SDS011;63521;51.900;4.748;2023-06-05T10:31:30;2.58;;;1.60;;
74963;SDS011;63521;51.900;4.748;2023-06-05T10:34:04;1.83;;;1.63;;
74963;SDS011;63521;51.900;4.748;2023-06-05T10:37:02;4.25;;;1.80;;
74963;SDS011;63521;51.900;4.748;2023-06-05T10:41:50;2.95;;;1.80;;
74963;SDS011;63521;51.900;4.748;2023-06-05T10:44:16;1.75;;;1.65;;
74963;SDS011;63521;51.900;4.748;2023-06-05T10:46:41;2.28;;;1.70;;
74963;SDS011;63521;51.900;4.748;2023-06-05T10:49:10;1.70;;;1.60;;
74963;SDS011;63521;51.900;4.748;2023-06-05T10:51:45;2.60;;;2.03;;
74963;SDS011;63521;51.900;4.748;2023-06-05T10:59:42;2.50;;;1.77;;
74963;SDS011;63521;51.900;4.748;2023-06-05T11:07:17;1.90;;;1.65;;
74963;SDS011;63521;51.900;4.748;2023-06-05T11:15:11;2.65;;;1.80;;
74963;SDS011;63521;51.900;4.748;2023-06-05T11:17:46;3.03;;;2.08;;
74963;SDS011;63521;51.900;4.748;2023-06-05T11:27:46;2.75;;;2.10;;
74963;SDS011;63521;51.900;4.748;2023-06-05T11:30:13;3.10;;;2.28;;
74963;SDS011;63521;51.900;4.748;2023-06-05T11:32:40;3.40;;;2.13;;
74963;SDS011;63521;51.900;4.748;2023-06-05T11:35:06;2.85;;;2.05;;
74963;SDS011;63521;51.900;4.748;2023-06-05T11:37:33;2.67;;;2.22;;
74963;SDS011;63521;51.900;4.748;2023-06-05T11:39:59;3.38;;;2.30;;
74963;SDS011;63521;51.900;4.748;2023-06-05T11:42:29;2.28;;;2.00;;
74963;SDS011;63521;51.900;4.748;2023-06-05T11:44:55;3.13;;;2.17;;
74963;SDS011;63521;51.900;4.748;2023-06-05T11:47:23;3.47;;;2.42;;
74963;SDS011;63521;51.900;4.748;2023-06-05T11:49:49;3.53;;;2.47;;
74963;SDS011;63521;51.900;4.748;2023-06-05T11:52:18;3.40;;;2.58;;
74963;SDS011;63521;51.900;4.748;2023-06-05T11:57:42;2.70;;;2.35;;
74963;SDS011;63521;51.900;4.748;2023-06-05T12:00:09;3.28;;;2.20;;
74963;SDS011;63521;51.900;4.748;2023-06-05T12:02:36;8.15;;;2.10;;
74963;SDS011;63521;51.900;4.748;2023-06-05T12:05:02;5.07;;;2.08;;
74963;SDS011;63521;51.900;4.748;2023-06-05T12:07:29;3.47;;;2.17;;
74963;SDS011;63521;51.900;4.748;2023-06-05T12:09:56;3.70;;;2.58;;
74963;SDS011;63521;51.900;4.748;2023-06-05T12:12:23;2.78;;;2.30;;
74963;SDS011;63521;51.900;4.748;2023-06-05T12:14:49;3.90;;;2.55;;
74963;SDS011;63521;51.900;4.748;2023-06-05T12:17:14;3.85;;;2.47;;
74963;SDS011;63521;51.900;4.748;2023-06-05T12:19:40;3.70;;;2.10;;
74963;SDS011;63521;51.900;4.748;2023-06-05T12:22:06;3.75;;;2.50;;
74963;SDS011;63521;51.900;4.748;2023-06-05T12:24:34;5.78;;;3.08;;
74963;SDS011;63521;51.900;4.748;2023-06-05T12:27:00;3.40;;;2.25;;
74963;SDS011;63521;51.900;4.748;2023-06-05T12:29:29;3.15;;;2.30;;
74963;SDS011;63521;51.900;4.748;2023-06-05T12:31:56;3.58;;;2.22;;
74963;SDS011;63521;51.900;4.748;2023-06-05T12:37:09;4.05;;;2.40;;
74963;SDS011;63521;51.900;4.748;2023-06-05T12:39:35;2.70;;;2.13;;
74963;SDS011;63521;51.900;4.748;2023-06-05T12:42:01;2.65;;;1.90;;
74963;SDS011;63521;51.900;4.748;2023-06-05T12:44:27;3.88;;;2.03;;
74963;SDS011;63521;51.900;4.748;2023-06-05T12:46:52;4.03;;;2.20;;
74963;SDS011;63521;51.900;4.748;2023-06-05T12:49:18;3.75;;;2.22;;
74963;SDS011;63521;51.900;4.748;2023-06-05T12:51:43;3.13;;;2.30;;
74963;SDS011;63521;51.900;4.748;2023-06-05T12:54:09;3.83;;;2.58;;
74963;SDS011;63521;51.900;4.748;2023-06-05T12:56:35;3.35;;;2.03;;
74963;SDS011;63521;51.900;4.748;2023-06-05T12:59:01;3.30;;;1.80;;
74963;SDS011;63521;51.900;4.748;2023-06-05T13:01:26;3.65;;;2.03;;
74963;SDS011;63521;51.900;4.748;2023-06-05T13:03:53;3.10;;;2.20;;
74963;SDS011;63521;51.900;4.748;2023-06-05T13:06:19;3.30;;;2.30;;
74963;SDS011;63521;51.900;4.748;2023-06-05T13:08:45;2.25;;;1.95;;
74963;SDS011;63521;51.900;4.748;2023-06-05T13:11:11;2.78;;;2.15;;
74963;SDS011;63521;51.900;4.748;2023-06-05T13:13:37;2.78;;;2.25;;
74963;SDS011;63521;51.900;4.748;2023-06-05T13:16:03;3.22;;;2.28;;
74963;SDS011;63521;51.900;4.748;2023-06-05T13:18:31;2.50;;;1.92;;
74963;SDS011;63521;51.900;4.748;2023-06-05T13:20:58;3.22;;;2.10;;
74963;SDS011;63521;51.900;4.748;2023-06-05T13:23:24;3.65;;;2.35;;
74963;SDS011;63521;51.900;4.748;2023-06-05T13:25:50;4.40;;;2.42;;
74963;SDS011;63521;51.900;4.748;2023-06-05T13:28:15;2.80;;;2.08;;
74963;SDS011;63521;51.900;4.748;2023-06-05T13:30:41;3.72;;;2.85;;
74963;SDS011;63521;51.900;4.748;2023-06-05T13:33:07;4.50;;;2.90;;
74963;SDS011;63521;51.900;4.748;2023-06-05T13:35:32;3.65;;;2.40;;
74963;SDS011;63521;51.900;4.748;2023-06-05T13:37:58;4.20;;;2.40;;
74963;SDS011;63521;51.900;4.748;2023-06-05T13:40:23;3.38;;;2.60;;
74963;SDS011;63521;51.900;4.748;2023-06-05T13:42:51;3.33;;;2.33;;
74963;SDS011;63521;51.900;4.748;2023-06-05T13:45:18;3.83;;;2.42;;
74963;SDS011;63521;51.900;4.748;2023-06-05T13:47:43;3.67;;;2.55;;
74963;SDS011;63521;51.900;4.748;2023-06-05T13:50:09;5.10;;;3.08;;
74963;SDS011;63521;51.900;4.748;2023-06-05T13:52:34;4.18;;;2.47;;
74963;SDS011;63521;51.900;4.748;2023-06-05T13:54:59;3.78;;;2.75;;
74963;SDS011;63521;51.900;4.748;2023-06-05T13:57:25;3.55;;;2.60;;
74963;SDS011;63521;51.900;4.748;2023-06-05T13:59:51;3.33;;;2.75;;
74963;SDS011;63521;51.900;4.748;2023-06-05T14:02:16;4.88;;;2.40;;
74963;SDS011;63521;51.900;4.748;2023-06-05T14:04:42;3.42;;;2.75;;
74963;SDS011;63521;51.900;4.748;2023-06-05T14:07:07;4.30;;;2.63;;
74963;SDS011;63521;51.900;4.748;2023-06-05T14:09:32;3.70;;;2.70;;
74963;SDS011;63521;51.900;4.748;2023-06-05T14:11:59;4.15;;;2.63;;
74963;SDS011;63521;51.900;4.748;2023-06-05T14:14:24;6.70;;;3.08;;
74963;SDS011;63521;51.900;4.748;2023-06-05T14:16:50;3.83;;;2.60;;
74963;SDS011;63521;51.900;4.748;2023-06-05T14:19:15;4.18;;;2.70;;
74963;SDS011;63521;51.900;4.748;2023-06-05T14:21:41;4.05;;;2.47;;
74963;SDS011;63521;51.900;4.748;2023-06-05T14:24:07;3.90;;;2.67;;
74963;SDS011;63521;51.900;4.748;2023-06-05T14:26:34;4.30;;;2.80;;
74963;SDS011;63521;51.900;4.748;2023-06-05T14:29:00;4.10;;;3.10;;
74963;SDS011;63521;51.900;4.748;2023-06-05T14:31:26;4.65;;;3.28;;
74963;SDS011;63521;51.900;4.748;2023-06-05T14:33:53;4.47;;;2.55;;
74963;SDS011;63521;51.900;4.748;2023-06-05T14:36:18;4.35;;;2.90;;
74963;SDS011;63521;51.900;4.748;2023-06-05T14:38:44;4.35;;;3.03;;
74963;SDS011;63521;51.900;4.748;2023-06-05T14:41:09;5.07;;;3.13;;
74963;SDS011;63521;51.900;4.748;2023-06-05T14:43:35;5.22;;;2.65;;
74963;SDS011;63521;51.900;4.748;2023-06-05T14:46:00;5.15;;;3.10;;
74963;SDS011;63521;51.900;4.748;2023-06-05T14:48:26;3.80;;;2.70;;
74963;SDS011;63521;51.900;4.748;2023-06-05T14:50:51;6.22;;;3.00;;
74963;SDS011;63521;51.900;4.748;2023-06-05T14:53:17;5.47;;;3.10;;
74963;SDS011;63521;51.900;4.748;2023-06-05T14:55:43;5.07;;;3.08;;
74963;SDS011;63521;51.900;4.748;2023-06-05T14:58:09;3.90;;;2.58;;
74963;SDS011;63521;51.900;4.748;2023-06-05T15:00:35;5.88;;;3.30;;
74963;SDS011;63521;51.900;4.748;2023-06-05T15:03:01;4.93;;;3.03;;
74963;SDS011;63521;51.900;4.748;2023-06-05T15:05:26;5.38;;;2.78;;
74963;SDS011;63521;51.900;4.748;2023-06-05T15:07:52;3.83;;;2.58;;
74963;SDS011;63521;51.900;4.748;2023-06-05T15:10:17;4.35;;;3.00;;
74963;SDS011;63521;51.900;4.748;2023-06-05T15:12:43;5.78;;;3.50;;
74963;SDS011;63521;51.900;4.748;2023-06-05T15:15:08;4.55;;;3.03;;
74963;SDS011;63521;51.900;4.748;2023-06-05T15:17:34;4.72;;;2.90;;
74963;SDS011;63521;51.900;4.748;2023-06-05T15:19:59;3.85;;;2.53;;
74963;SDS011;63521;51.900;4.748;2023-06-05T15:22:25;4.28;;;2.55;;
74963;SDS011;63521;51.900;4.748;2023-06-05T15:24:50;5.32;;;2.90;;
74963;SDS011;63521;51.900;4.748;2023-06-05T15:27:16;5.00;;;3.15;;